Forside
METAR-TAF:

METAR-TAF

Lufthavne :

Ljungbyhed, Sverige

Breddekreds: 56-04N, længdekreds: 013-12E, højde: 43 m

Aktuelle vejr

Denne rapport blev lavet for 37 minutter siden, kl. 19:20 UTC
Vind 7 kt fra syd
Temperatur 2°C
Fugtighed 100%
Tryk 996 hPa
Sigt: 8000 m
let regn

METAR: ESTL 031920Z AUTO 19007KT 8000 -RA FEW007/// SCT008/// BKN010/// 02/02 Q0996

Tid: 20:57 (19:57 UTC)

Vejrudsigter

Denne rapport blev lavet for 6 timer og 8 minutter siden, kl. 13:49 UTC
Foreløbig gælder fra 03 på 13 UTC til 03 på 16 UTC
Vind 6 kt fra østsydøst
Sigt 10 km eller mere
Brudte skyer i en højde af 2000 ft
ændring
fra 03 på 13 UTC til 03 på 14 UTC
Sigt: 4000 m
Brudte skyer i en højde af 800 ft
(let) snekorn, regn, sne
Midlertidig
fra 03 på 14 UTC til 03 på 16 UTC
Sigt: 1500 m
Brudte skyer i en højde af 200 ft
regn, finregn, dis

TAF: ESTL 031349Z 0313/0316 11006KT 9999 BKN020 BECMG 0313/0314 4000 -SGRASN BKN008 TEMPO 0314/0316 1500 RADZ BR BKN002

Vejrobservationer og prognoser fra mere end 4000 lufthavne (METAR og TAF).

De gule og røde prikker repræsenterer de meteorologiske stationer.

Flyt musen over at se navnet på stationen.

Så klik over at se vejr observationer og prognoser.

At skifte det kort: Klik på de grønne knapper med et sort kors for at zoome ind; på den grønne knap med en bindestreg for at zoome ud; eller på de grønne pile for tilstødende kort.


METAR-TAF: